ADDS METAR Data INFO
IDs: Format: Raw Decoded Include TAF

Data at: 0409 UTC 11 Dec 2017

KLXV 110353Z AUTO 06007KT 10SM CLR M10/M22 A3054 RMK AO2 SLP348 T11001222
KLXV 110253Z AUTO 04005KT 7SM CLR M08/M22 A3053 RMK AO2 SLP355 T10831217 50004
KLXV 110153Z AUTO 05007KT 10SM CLR M07/M21 A3054 RMK AO2 SLP352 T10671206
KLXV 110053Z AUTO 03006KT 10SM CLR M04/M22 A3054 RMK AO2 SLP343 T10391222
KLXV 102353Z AUTO 01007KT 10SM CLR M02/M23 A3052 RMK AO2 SLP331 T10221228 10050 21022 55000
KLXV 102253Z AUTO 33007KT 10SM CLR 03/M23 A3051 RMK AO2 SLP305 T00281228
KLXV 102153Z AUTO 32007KT 10SM CLR 03/M25 A3051 RMK AO2 SLP324 T00331250
KLXV 102053Z AUTO 34004KT 10SM CLR 05/M26 A3052 RMK AO2 SLP302 T00501261 57011
KLXV 101953Z AUTO 34005KT 10SM CLR 04/M25 A3053 RMK AO2 SLP302 T00441250
KLXV 101853Z AUTO 35008KT 10SM CLR 04/M28 A3055 RMK AO2 SLP313 T00391278
KLXV 101753Z AUTO 35005KT 10SM CLR 03/M26 A3056 RMK AO2 SLP318 T00281261 10028 21117 50001
KLXV 101653Z AUTO 03005KT 10SM CLR M01/M26 A3057 RMK AO2 SLP331 T10061256
KLXV 101553Z AUTO 04008KT 10SM CLR M06/M24 A3056 RMK AO2 SLP350 T10561239
KLXV 101453Z AUTO 04008KT 10SM CLR M10/M25 A3055 RMK AO2 SLP368 T11001250 51003
KLXV 101353Z AUTO 04007KT 10SM CLR M11/M24 A3055 RMK AO2 SLP359 T11061244
KLXV 101253Z AUTO 05008KT 10SM CLR M11/M23 A3054 RMK AO2 SLP351 T11061233
KLXV 101153Z AUTO 04008KT 10SM CLR M11/M23 A3054 RMK AO2 SLP339 T11111233 11094 21156 58002
KLXV 101053Z AUTO 05010KT 10SM CLR M11/M23 A3054 RMK AO2 SLP330 T11111233
KLXV 100953Z AUTO 05006KT 10SM CLR M16/M23 A3055 RMK AO2 SLP348 T11561228
KLXV 100853Z AUTO 05010KT 10SM CLR M12/M22 A3055 RMK AO2 SLP328 T11221217 58006
KLXV 100753Z AUTO 06009KT 10SM CLR M10/M21 A3055 RMK AO2 SLP326 T11001211
KLXV 100653Z AUTO 06005KT 10SM CLR M11/M21 A3057 RMK AO2 SLP332 T11061211 400221161
KLXV 100553Z AUTO 06003KT 10SM CLR M10/M21 A3057 RMK AO2 SLP333 T11001211 11028 21111 53008
KLXV 100453Z AUTO 05004KT 10SM CLR M09/M20 A3056 RMK AO2 SLP348 T10891200
KLXV 100353Z AUTO 06008KT 10SM CLR M09/M21 A3054 RMK AO2 SLP341 T10891206
KLXV 100253Z AUTO 06007KT 10SM CLR M09/M19 A3054 RMK AO2 SLP364 T10891194 51013
KLXV 100153Z AUTO 03007KT 10SM CLR M07/M18 A3054 RMK AO2 SLP352 T10671183
KLXV 100053Z AUTO 36008KT 10SM CLR M05/M19 A3051 RMK AO2 SLP339 T10501189
KLXV 092353Z AUTO 34008KT 10SM CLR M03/M20 A3049 RMK AO2 SLP331 T10281200 10022 21028 53005
KLXV 092253Z AUTO 31007KT 10SM CLR 00/M21 A3048 RMK AO2 SLP322 T00001206
KLXV 092153Z AUTO 30012G19KT 10SM CLR 01/M21 A3047 RMK AO2 SLP314 T00111211
KLXV 092053Z AUTO 31010G17KT 10SM CLR 02/M21 A3047 RMK AO2 SLP320 T00171206 56008
KLXV 091953Z AUTO 31012G19KT 10SM CLR 01/M20 A3048 RMK AO2 SLP309 T00111200
KLXV 091853Z AUTO 29010G18KT 10SM CLR 01/M21 A3050 RMK AO2 SLP305 T00111206
KLXV 091753Z AUTO 00000KT 10SM CLR 01/M21 A3051 RMK AO2 SLP317 T00111206 10011 21139 58000
KLXV 091653Z AUTO 00000KT 10SM CLR M05/M19 A3051 RMK AO2 SLP344 T10501189